createdAt,value
2022-08-17T00:00:49.269Z,83.12
2022-08-17T00:01:51.847Z,82.81
2022-08-17T00:02:38.335Z,82.81
2022-08-17T00:03:38.022Z,83.01
2022-08-17T00:04:36.012Z,83.32
2022-08-17T00:05:36.010Z,82.91
2022-08-17T00:06:35.990Z,83.32
2022-08-17T00:07:35.979Z,83.22
2022-08-17T00:08:35.961Z,83.12
2022-08-17T00:09:35.941Z,83.62
2022-08-17T00:10:35.971Z,83.32
2022-08-17T00:11:35.922Z,83.66
2022-08-17T00:12:42.870Z,83.56
2022-08-17T00:13:36.891Z,83.46
2022-08-17T00:14:35.892Z,83.86
2022-08-17T00:15:35.903Z,83.86
2022-08-17T00:16:55.470Z,83.86
2022-08-17T00:17:36.845Z,83.76
2022-08-17T00:19:01.477Z,83.76
2022-08-17T00:19:36.815Z,84.06
2022-08-17T00:20:35.819Z,83.46
2022-08-17T00:21:57.913Z,83.46
2022-08-17T00:22:36.975Z,83.86
2022-08-17T00:23:35.763Z,84.27
2022-08-17T00:24:35.757Z,84.06
2022-08-17T00:25:35.746Z,84.27
2022-08-17T00:26:45.139Z,84.91
2022-08-17T00:27:36.709Z,85.02
2022-08-17T00:28:35.704Z,84.41
2022-08-17T00:29:35.691Z,84.31
2022-08-17T00:30:52.914Z,84.51
2022-08-17T00:31:36.657Z,84.61
2022-08-17T00:33:13.602Z,84.61
2022-08-17T00:33:36.647Z,84.61
2022-08-17T00:34:35.627Z,85.11
2022-08-17T00:35:35.617Z,84.51
2022-08-17T00:36:35.597Z,84.31
2022-08-17T00:37:35.577Z,84.71
2022-08-17T00:38:35.575Z,84.81
2022-08-17T00:39:35.616Z,85.02
2022-08-17T00:40:44.291Z,85.31
2022-08-17T00:41:36.530Z,84.61
2022-08-17T00:42:36.521Z,84.61
2022-08-17T00:43:35.511Z,84.91
2022-08-17T00:44:35.520Z,84.61
2022-08-17T00:45:35.480Z,84.41
2022-08-17T00:46:35.468Z,84.51
2022-08-17T00:47:35.454Z,84.81
2022-08-17T00:48:35.441Z,84.81
2022-08-17T00:49:35.420Z,84.81
2022-08-17T00:50:35.421Z,84.71
2022-08-17T00:51:35.399Z,84.61
2022-08-17T00:52:35.390Z,85.11
2022-08-17T00:53:35.372Z,86.02
2022-08-17T00:54:40.962Z,84.95
2022-08-17T00:55:36.351Z,85.56
2022-08-17T00:56:35.345Z,85.96
2022-08-17T00:57:35.324Z,86.07
2022-08-17T00:58:36.315Z,86.47
2022-08-17T00:59:35.299Z,86.16
2022-08-17T01:00:35.284Z,86.27
2022-08-17T01:01:35.329Z,86.57
2022-08-17T01:02:42.843Z,86.87
2022-08-17T01:03:36.243Z,86.27
2022-08-17T01:04:35.234Z,85.86
2022-08-17T01:05:35.226Z,86.16
2022-08-17T01:06:35.212Z,86.67
2022-08-17T01:07:35.193Z,86.37
2022-08-17T01:08:35.182Z,85.80
2022-08-17T01:09:35.165Z,86.10
2022-08-17T01:11:00.628Z,86.31
2022-08-17T01:11:36.133Z,86.51
2022-08-17T01:12:35.134Z,87.32
2022-08-17T01:13:40.427Z,87.12
2022-08-17T01:14:36.105Z,86.41
2022-08-17T01:15:35.096Z,86.41
2022-08-17T01:16:35.077Z,86.51
2022-08-17T01:17:35.065Z,86.61
2022-08-17T01:18:35.058Z,86.61
2022-08-17T01:19:35.036Z,86.21
2022-08-17T01:20:47.532Z,86.10
2022-08-17T01:21:36.008Z,86.00
2022-08-17T01:22:35.006Z,86.41
2022-08-17T01:23:34.987Z,86.61
2022-08-17T01:24:34.967Z,87.12
2022-08-17T01:25:35.946Z,87.26
2022-08-17T01:26:34.971Z,86.76
2022-08-17T01:27:34.937Z,86.55
2022-08-17T01:28:53.876Z,86.85
2022-08-17T01:29:35.909Z,86.55
2022-08-17T01:30:57.127Z,86.85
2022-08-17T01:31:35.874Z,87.46
2022-08-17T01:32:34.877Z,87.26
2022-08-17T01:33:34.852Z,87.26
2022-08-17T01:34:43.322Z,87.16
2022-08-17T01:35:35.839Z,87.16
2022-08-17T01:36:34.811Z,87.56
2022-08-17T01:37:34.798Z,87.46
2022-08-17T01:38:34.790Z,88.37
2022-08-17T01:39:34.809Z,87.66
2022-08-17T01:40:34.774Z,87.36
2022-08-17T01:41:34.752Z,87.36
2022-08-17T01:42:34.739Z,87.77
2022-08-17T01:43:34.721Z,87.66
2022-08-17T01:44:34.712Z,87.66
2022-08-17T01:45:34.700Z,87.56
2022-08-17T01:46:34.681Z,87.66
2022-08-17T01:47:35.414Z,87.56
2022-08-17T01:48:34.654Z,87.66
2022-08-17T01:49:34.635Z,87.46
2022-08-17T01:50:34.634Z,87.26
2022-08-17T01:51:34.602Z,87.56
2022-08-17T01:52:34.597Z,87.77
2022-08-17T01:53:34.583Z,86.96
2022-08-17T01:54:34.565Z,87.36
2022-08-17T01:55:34.565Z,87.56
2022-08-17T01:56:35.544Z,87.36
2022-08-17T01:57:34.535Z,87.56
2022-08-17T01:58:34.525Z,87.46
2022-08-17T01:59:34.505Z,87.56
2022-08-17T02:00:59.610Z,87.56
2022-08-17T02:01:35.474Z,87.56
2022-08-17T02:02:34.464Z,87.36
2022-08-17T02:03:34.444Z,87.77
2022-08-17T02:04:34.445Z,87.46
2022-08-17T02:05:34.425Z,87.05
2022-08-17T02:06:44.798Z,86.96
2022-08-17T02:07:47.964Z,87.77
2022-08-17T02:08:39.060Z,87.87
2022-08-17T02:09:35.367Z,87.30
2022-08-17T02:10:35.367Z,87.60
2022-08-17T02:11:35.346Z,87.71
2022-08-17T02:12:38.103Z,87.91
2022-08-17T02:13:35.329Z,87.81
2022-08-17T02:14:34.307Z,87.60
2022-08-17T02:15:34.308Z,87.51
2022-08-17T02:16:37.677Z,88.11
2022-08-17T02:17:34.269Z,88.11
2022-08-17T02:18:34.258Z,88.46
2022-08-17T02:19:34.248Z,88.62
2022-08-17T02:20:41.493Z,88.62
2022-08-17T02:21:35.229Z,88.51
2022-08-17T02:22:34.208Z,88.11
2022-08-17T02:23:34.191Z,88.21
2022-08-17T02:24:58.627Z,88.31
2022-08-17T02:25:35.169Z,88.11
2022-08-17T02:26:34.150Z,88.31
2022-08-17T02:27:34.168Z,88.31
2022-08-17T02:28:34.196Z,88.56
2022-08-17T02:29:34.182Z,88.56
2022-08-17T02:31:01.205Z,88.96
2022-08-17T02:31:35.076Z,88.76
2022-08-17T02:32:34.072Z,88.46
2022-08-17T02:33:41.637Z,88.56
2022-08-17T02:34:35.154Z,88.76
2022-08-17T02:35:34.041Z,88.96
2022-08-17T02:36:34.036Z,89.47
2022-08-17T02:37:34.002Z,89.77
2022-08-17T02:38:34.031Z,89.17
2022-08-17T02:39:36.077Z,89.26
2022-08-17T02:40:36.544Z,89.37
2022-08-17T02:41:33.951Z,88.96
2022-08-17T02:42:33.944Z,88.96
2022-08-17T02:43:33.963Z,88.96
2022-08-17T02:44:38.873Z,88.56
2022-08-17T02:45:34.934Z,88.96
2022-08-17T02:46:34.913Z,88.76
2022-08-17T02:47:33.893Z,88.56
2022-08-17T02:48:34.924Z,88.35
2022-08-17T02:49:33.905Z,88.46
2022-08-17T02:50:33.946Z,88.66
2022-08-17T02:51:33.914Z,88.96
2022-08-17T02:52:42.294Z,88.86
2022-08-17T02:53:35.785Z,88.56
2022-08-17T02:54:40.775Z,88.76
2022-08-17T02:55:34.775Z,88.66
2022-08-17T02:56:33.755Z,88.46
2022-08-17T02:57:33.745Z,88.76
2022-08-17T02:58:35.217Z,88.86
2022-08-17T02:59:33.697Z,89.17
2022-08-17T03:00:33.704Z,89.06
2022-08-17T03:01:33.677Z,88.96
2022-08-17T03:02:33.676Z,88.86
2022-08-17T03:03:33.652Z,88.46
2022-08-17T03:04:35.254Z,89.06
2022-08-17T03:05:33.628Z,88.96
2022-08-17T03:06:33.618Z,88.76
2022-08-17T03:07:33.598Z,88.86
2022-08-17T03:08:33.586Z,89.17
2022-08-17T03:09:33.568Z,88.76
2022-08-17T03:10:33.573Z,88.76
2022-08-17T03:11:33.653Z,88.76
2022-08-17T03:12:33.560Z,88.86
2022-08-17T03:13:33.508Z,88.96
2022-08-17T03:14:36.993Z,88.96
2022-08-17T03:15:34.488Z,89.06
2022-08-17T03:16:33.570Z,89.67
2022-08-17T03:17:33.479Z,89.37
2022-08-17T03:18:33.440Z,89.57
2022-08-17T03:19:33.493Z,89.57
2022-08-17T03:20:33.441Z,89.57
2022-08-17T03:21:33.474Z,89.67
2022-08-17T03:22:36.277Z,89.77
2022-08-17T03:23:33.372Z,89.26
2022-08-17T03:24:56.422Z,89.06
2022-08-17T03:25:33.361Z,89.57
2022-08-17T03:26:33.341Z,88.96
2022-08-17T03:27:33.333Z,88.96
2022-08-17T03:28:33.323Z,89.87
2022-08-17T03:29:33.362Z,90.28
2022-08-17T03:30:33.308Z,89.87
2022-08-17T03:31:33.275Z,89.17
2022-08-17T03:32:33.355Z,88.96
2022-08-17T03:33:33.247Z,88.96
2022-08-17T03:34:33.292Z,88.96
2022-08-17T03:35:33.244Z,88.86
2022-08-17T03:36:36.149Z,89.47
2022-08-17T03:37:33.197Z,89.26
2022-08-17T03:38:39.050Z,89.06
2022-08-17T03:39:34.276Z,89.06
2022-08-17T03:40:55.545Z,88.96
2022-08-17T03:41:34.226Z,88.66
2022-08-17T03:42:33.187Z,88.76
2022-08-17T03:43:33.159Z,88.96
2022-08-17T03:44:33.157Z,88.86
2022-08-17T03:45:33.167Z,88.66
2022-08-17T03:46:35.284Z,88.21
2022-08-17T03:47:33.075Z,88.21
2022-08-17T04:03:23.465Z,88.76
2022-08-17T04:04:27.536Z,88.86
2022-08-17T04:05:23.439Z,88.76
2022-08-17T04:06:23.433Z,88.46
2022-08-17T04:07:23.426Z,88.76
2022-08-17T04:08:23.395Z,88.56
2022-08-17T04:09:23.387Z,89.06
2022-08-17T04:10:26.401Z,89.67
2022-08-17T04:11:23.377Z,89.06
2022-08-17T04:12:23.339Z,89.26
2022-08-17T04:13:24.864Z,88.76
2022-08-17T04:14:23.310Z,88.66
2022-08-17T04:15:23.308Z,88.86
2022-08-17T04:16:31.988Z,89.06
2022-08-17T04:17:23.290Z,88.96
2022-08-17T04:18:23.259Z,89.06
2022-08-17T04:19:23.251Z,88.66
2022-08-17T04:20:23.240Z,88.46
2022-08-17T04:21:23.228Z,88.76
2022-08-17T04:22:32.818Z,88.86
2022-08-17T04:23:24.199Z,88.86
2022-08-17T04:24:23.198Z,88.96
2022-08-17T04:25:23.177Z,88.66
2022-08-17T04:26:54.181Z,89.06
2022-08-17T04:27:24.160Z,88.86
2022-08-17T04:28:23.140Z,89.26
2022-08-17T04:29:23.119Z,89.06
2022-08-17T04:30:23.110Z,89.37
2022-08-17T04:31:23.090Z,89.26
2022-08-17T04:32:25.172Z,89.47
2022-08-17T04:33:24.080Z,89.57
2022-08-17T04:34:23.071Z,89.26
2022-08-17T04:35:23.045Z,89.37
2022-08-17T04:36:23.030Z,89.26
2022-08-17T04:37:23.055Z,89.06
2022-08-17T04:38:23.011Z,89.57
2022-08-17T04:39:22.991Z,89.57
2022-08-17T04:40:22.996Z,89.67
2022-08-17T04:41:22.962Z,88.96
2022-08-17T04:42:22.960Z,88.96
2022-08-17T04:43:22.953Z,88.76
2022-08-17T04:44:36.941Z,88.86
2022-08-17T04:45:23.921Z,89.06
2022-08-17T04:46:22.926Z,89.37
2022-08-17T04:47:22.901Z,89.06
2022-08-17T04:48:22.896Z,88.96
2022-08-17T04:49:23.854Z,89.26
2022-08-17T04:50:22.866Z,89.17
2022-08-17T04:51:22.864Z,88.86
2022-08-17T04:52:31.548Z,89.26
2022-08-17T04:53:23.832Z,89.67
2022-08-17T04:54:22.820Z,89.67
2022-08-17T04:55:22.784Z,89.57
2022-08-17T04:56:22.786Z,89.98
2022-08-17T04:57:22.774Z,89.98
2022-08-17T04:58:22.757Z,90.48
2022-08-17T04:59:22.727Z,90.48
2022-08-17T05:00:22.733Z,90.08
2022-08-17T05:01:23.938Z,90.28
2022-08-17T05:02:22.697Z,90.28
2022-08-17T05:03:22.696Z,90.08
2022-08-17T05:04:33.990Z,90.18
2022-08-17T05:05:23.656Z,89.87
2022-08-17T05:06:22.659Z,89.67
2022-08-17T05:07:24.637Z,89.47
2022-08-17T05:08:22.638Z,89.37
2022-08-17T05:09:22.600Z,89.17
2022-08-17T05:10:22.589Z,89.26
2022-08-17T05:11:22.587Z,89.26
2022-08-17T05:12:22.618Z,89.57
2022-08-17T05:13:22.568Z,89.32
2022-08-17T05:14:22.538Z,89.63
2022-08-17T05:15:23.530Z,89.53
2022-08-17T05:16:22.522Z,89.63
2022-08-17T05:17:22.500Z,89.73
2022-08-17T05:18:22.501Z,89.83
2022-08-17T05:19:22.477Z,89.63
2022-08-17T05:20:22.566Z,89.83
2022-08-17T05:21:22.448Z,89.89
2022-08-17T05:22:22.440Z,89.89
2022-08-17T05:23:22.430Z,89.79
2022-08-17T05:24:38.591Z,89.59
2022-08-17T05:25:25.583Z,89.59
2022-08-17T05:26:26.471Z,89.59
2022-08-17T05:27:22.381Z,89.65
2022-08-17T05:28:27.364Z,89.54
2022-08-17T05:29:23.350Z,89.24
2022-08-17T05:30:23.342Z,88.84
2022-08-17T05:31:22.341Z,88.33
2022-08-17T05:32:37.921Z,88.02
2022-08-17T05:33:23.306Z,87.99
2022-08-17T05:34:22.316Z,89.00
2022-08-17T05:35:22.284Z,88.90
2022-08-17T05:36:43.175Z,87.88
2022-08-17T05:37:23.243Z,88.59
2022-08-17T05:38:22.258Z,88.70
2022-08-17T05:39:22.222Z,89.06
2022-08-17T05:40:22.204Z,88.45
2022-08-17T05:41:22.200Z,88.15
2022-08-17T05:42:22.192Z,88.65
2022-08-17T05:43:22.174Z,87.84
2022-08-17T05:44:22.161Z,87.64
2022-08-17T05:45:46.114Z,88.04
2022-08-17T05:46:23.137Z,88.01
2022-08-17T05:47:22.117Z,87.19
2022-08-17T05:48:22.123Z,86.49
2022-08-17T05:49:23.087Z,86.95
2022-08-17T05:50:26.077Z,86.95
2022-08-17T05:51:23.066Z,85.84
2022-08-17T05:52:22.061Z,85.60
2022-08-17T05:53:22.058Z,84.89
2022-08-17T05:54:22.026Z,84.49
2022-08-17T05:55:22.018Z,84.55
2022-08-17T05:56:29.541Z,84.05
2022-08-17T05:57:22.999Z,83.10
2022-08-17T05:58:21.986Z,82.09
2022-08-17T05:59:21.968Z,81.48
2022-08-17T06:00:21.965Z,81.55
2022-08-17T06:01:23.018Z,81.45
2022-08-17T06:02:21.928Z,81.15
2022-08-17T06:03:21.911Z,81.01
2022-08-17T06:04:21.911Z,80.70
2022-08-17T06:05:21.881Z,80.90
2022-08-17T06:06:21.873Z,80.80
2022-08-17T06:07:21.872Z,80.50
2022-08-17T06:08:21.847Z,80.36
2022-08-17T06:09:27.690Z,79.66
2022-08-17T06:10:22.836Z,79.16
2022-08-17T06:11:22.806Z,78.96
2022-08-17T06:12:21.801Z,78.61
2022-08-17T06:13:21.789Z,78.01
2022-08-17T06:14:21.781Z,77.81
2022-08-17T06:15:21.764Z,78.21
2022-08-17T06:16:33.689Z,78.27
2022-08-17T06:17:22.726Z,77.77
2022-08-17T06:18:21.719Z,77.57
2022-08-17T06:19:21.730Z,77.37
2022-08-17T06:20:21.702Z,77.57
2022-08-17T06:21:22.420Z,77.03
2022-08-17T06:22:22.673Z,76.73
2022-08-17T06:23:21.655Z,76.32
2022-08-17T06:24:21.654Z,76.32
2022-08-17T06:25:21.633Z,76.32
2022-08-17T06:26:21.622Z,76.73
2022-08-17T06:27:21.594Z,76.49
2022-08-17T06:28:21.627Z,76.49
2022-08-17T06:29:21.575Z,75.99
2022-08-17T06:30:21.568Z,75.59
2022-08-17T06:31:21.564Z,75.38
2022-08-17T06:32:21.537Z,75.59
2022-08-17T06:33:21.537Z,76.35
2022-08-17T06:34:21.526Z,75.95
2022-08-17T06:35:21.497Z,77.06
2022-08-17T06:36:21.488Z,76.86
2022-08-17T06:37:21.476Z,76.86
2022-08-17T06:38:37.204Z,77.39
2022-08-17T06:39:22.448Z,76.69
2022-08-17T06:40:21.444Z,76.19
2022-08-17T06:41:21.427Z,76.29
2022-08-17T06:42:54.882Z,77.09
2022-08-17T06:43:22.387Z,77.00
2022-08-17T06:44:43.693Z,77.80
2022-08-17T06:45:22.389Z,77.80
2022-08-17T06:46:21.359Z,78.70
2022-08-17T06:47:28.559Z,78.90
2022-08-17T06:48:22.367Z,78.40
2022-08-17T06:49:21.351Z,77.80
2022-08-17T06:50:21.310Z,77.59
2022-08-17T06:51:21.292Z,77.86
2022-08-17T06:52:43.419Z,77.46
2022-08-17T06:53:22.260Z,77.26
2022-08-17T06:54:21.262Z,76.76
2022-08-17T06:55:21.331Z,76.86
2022-08-17T06:56:21.231Z,76.45
2022-08-17T06:57:21.210Z,75.75
2022-08-17T06:58:21.203Z,75.71
2022-08-17T06:59:21.183Z,75.71
2022-08-17T07:00:21.194Z,75.01
2022-08-17T07:01:21.221Z,75.01
2022-08-17T07:02:29.068Z,74.91
2022-08-17T07:03:22.157Z,74.98
2022-08-17T07:04:21.123Z,74.88
2022-08-17T07:05:21.130Z,75.08
2022-08-17T07:06:21.094Z,74.68
2022-08-17T07:07:21.083Z,74.27
2022-08-17T07:08:21.087Z,74.18
2022-08-17T07:09:21.090Z,73.84
2022-08-17T07:10:21.065Z,73.74
2022-08-17T07:11:21.024Z,73.64
2022-08-17T07:12:21.048Z,73.54
2022-08-17T07:13:21.014Z,73.20
2022-08-17T07:14:21.004Z,72.90
2022-08-17T07:15:21.016Z,72.70
2022-08-17T07:16:20.976Z,72.80
2022-08-17T07:17:20.977Z,72.70
2022-08-17T07:18:20.955Z,72.36
2022-08-17T07:19:20.934Z,72.47
2022-08-17T07:20:20.944Z,72.56
2022-08-17T07:21:25.866Z,72.97
2022-08-17T07:22:21.899Z,72.16
2022-08-17T07:23:20.887Z,71.96
2022-08-17T07:24:29.701Z,71.53
2022-08-17T07:25:21.867Z,71.33
2022-08-17T07:26:20.870Z,71.33
2022-08-17T07:27:20.834Z,71.03
2022-08-17T07:28:20.819Z,70.32
2022-08-17T07:29:20.809Z,70.19
2022-08-17T07:30:20.823Z,69.99
2022-08-17T07:31:20.791Z,69.79
2022-08-17T07:32:20.790Z,69.59
2022-08-17T07:33:20.759Z,69.46
2022-08-17T07:34:20.755Z,69.26
2022-08-17T07:35:20.750Z,68.96
2022-08-17T07:36:20.719Z,68.76
2022-08-17T07:37:20.713Z,68.23
2022-08-17T07:38:25.603Z,67.43
2022-08-17T07:39:21.687Z,67.32
2022-08-17T07:40:20.725Z,67.49
2022-08-17T07:41:20.652Z,67.19
2022-08-17T07:42:20.651Z,67.59
2022-08-17T07:43:23.484Z,66.99
2022-08-17T07:44:20.659Z,67.19
2022-08-17T07:45:20.623Z,66.96
2022-08-17T07:46:20.605Z,66.76
2022-08-17T07:47:20.574Z,66.56
2022-08-17T07:48:20.563Z,66.46
2022-08-17T07:49:20.543Z,66.56
2022-08-17T07:50:23.970Z,66.36
2022-08-17T07:51:21.529Z,66.16
2022-08-17T07:52:48.063Z,66.06
2022-08-17T07:53:21.485Z,65.93
2022-08-17T07:54:20.501Z,65.63
2022-08-17T07:55:20.485Z,65.53
2022-08-17T07:56:20.457Z,65.23
2022-08-17T07:57:20.440Z,64.33
2022-08-17T07:58:20.430Z,64.70
2022-08-17T07:59:23.323Z,64.80
2022-08-17T08:00:26.677Z,65.10
2022-08-17T08:01:21.408Z,64.80
2022-08-17T08:02:20.434Z,64.30
2022-08-17T08:03:20.378Z,64.47
2022-08-17T08:04:29.166Z,64.17
2022-08-17T08:05:48.547Z,62.67
2022-08-17T08:06:21.327Z,62.87
2022-08-17T08:07:20.310Z,62.74
2022-08-17T08:08:20.300Z,62.34
2022-08-17T08:09:20.279Z,62.45
2022-08-17T08:10:20.287Z,62.45
2022-08-17T08:11:20.260Z,62.01
2022-08-17T08:12:20.252Z,61.82
2022-08-17T08:13:20.229Z,61.91
2022-08-17T08:14:20.217Z,62.12
2022-08-17T08:15:20.244Z,62.12
2022-08-17T08:16:20.215Z,62.18
2022-08-17T08:17:20.180Z,61.99
2022-08-17T08:18:20.183Z,61.69
2022-08-17T08:19:21.286Z,61.55
2022-08-17T08:20:42.480Z,60.56
2022-08-17T08:21:21.127Z,60.76
2022-08-17T08:22:20.130Z,61.43
2022-08-17T08:23:20.130Z,60.83
2022-08-17T08:24:20.128Z,59.53
2022-08-17T08:25:20.112Z,59.44
2022-08-17T08:26:20.080Z,59.31
2022-08-17T08:27:20.059Z,59.31
2022-08-17T08:28:20.082Z,59.58
2022-08-17T08:29:20.027Z,58.39
2022-08-17T08:30:20.072Z,58.69
2022-08-17T08:31:19.994Z,58.39
2022-08-17T08:32:19.991Z,58.56
2022-08-17T08:33:19.984Z,57.76
2022-08-17T08:34:58.922Z,56.04
2022-08-17T08:35:20.976Z,55.82
2022-08-17T08:37:14.545Z,55.62
2022-08-17T08:37:32.595Z,55.40
2022-08-17T08:38:20.927Z,55.40
2022-08-17T08:39:19.897Z,54.90
2022-08-17T08:40:20.001Z,55.49
2022-08-17T08:41:19.869Z,55.27
2022-08-17T08:42:19.859Z,54.38
2022-08-17T08:43:19.866Z,54.57
2022-08-17T08:44:19.838Z,54.87
2022-08-17T08:45:19.864Z,54.57
2022-08-17T08:46:19.951Z,54.68
2022-08-17T08:47:19.812Z,54.57
2022-08-17T08:48:46.137Z,54.75
2022-08-17T08:49:33.805Z,55.54
2022-08-17T08:50:30.174Z,54.64
2022-08-17T08:51:20.760Z,54.94
2022-08-17T08:52:19.809Z,54.55
2022-08-17T08:53:19.739Z,54.94
2022-08-17T08:54:22.329Z,55.02
2022-08-17T08:55:20.741Z,54.62
2022-08-17T08:56:19.681Z,54.02
2022-08-17T08:57:33.365Z,53.73
2022-08-17T08:58:31.884Z,53.60
2022-08-17T08:59:20.659Z,53.31
2022-08-17T09:00:19.635Z,52.91
2022-08-17T09:01:19.748Z,51.99
2022-08-17T09:02:19.749Z,51.50
2022-08-17T09:03:19.596Z,51.20
2022-08-17T09:04:25.039Z,51.28
2022-08-17T09:05:20.581Z,51.47
2022-08-17T09:06:37.405Z,51.75
2022-08-17T09:07:20.548Z,51.75
2022-08-17T09:08:19.525Z,51.65
2022-08-17T09:09:19.526Z,51.65
2022-08-17T09:10:19.515Z,50.95
2022-08-17T09:11:19.488Z,49.27
2022-08-17T09:12:19.525Z,50.04
2022-08-17T09:13:19.484Z,49.64
2022-08-17T09:14:21.254Z,50.13
2022-08-17T09:15:19.457Z,49.82
2022-08-17T09:16:19.428Z,48.73
2022-08-17T09:17:19.421Z,48.43
2022-08-17T09:19:00.699Z,47.15
2022-08-17T09:19:20.392Z,47.91
2022-08-17T09:20:28.147Z,47.91
2022-08-17T09:21:20.359Z,48.02
2022-08-17T09:22:19.445Z,48.11
2022-08-17T09:23:19.350Z,48.51
2022-08-17T09:24:20.572Z,48.88
2022-08-17T09:25:19.330Z,48.28
2022-08-17T09:26:19.300Z,48.78
2022-08-17T09:27:19.291Z,48.68
2022-08-17T09:28:19.278Z,48.98
2022-08-17T09:29:19.262Z,48.09
2022-08-17T09:30:19.242Z,48.58
2022-08-17T09:31:19.258Z,49.87
2022-08-17T09:32:19.247Z,48.68
2022-08-17T09:33:19.288Z,47.47
2022-08-17T09:34:19.198Z,47.77
2022-08-17T09:35:19.194Z,46.76
2022-08-17T09:36:19.173Z,47.75
2022-08-17T09:37:19.164Z,47.45
2022-08-17T09:38:19.154Z,46.84
2022-08-17T09:39:19.141Z,47.13
2022-08-17T09:40:19.321Z,46.12
2022-08-17T09:41:19.116Z,46.12
2022-08-17T09:42:19.167Z,45.53
2022-08-17T09:43:19.142Z,45.41
2022-08-17T09:44:23.048Z,44.13
2022-08-17T09:45:19.089Z,44.62
2022-08-17T09:46:19.047Z,45.51
2022-08-17T09:47:19.046Z,46.00
2022-08-17T10:04:06.665Z,44.51
2022-08-17T10:05:06.666Z,44.40
2022-08-17T10:06:06.818Z,46.67
2022-08-17T10:07:06.625Z,44.60
2022-08-17T10:08:06.608Z,44.31
2022-08-17T10:09:06.598Z,44.90
2022-08-17T10:10:10.818Z,44.40
2022-08-17T10:11:07.577Z,43.91
2022-08-17T10:12:06.572Z,44.01
2022-08-17T10:13:06.549Z,44.01
2022-08-17T10:14:36.076Z,44.21
2022-08-17T10:15:07.976Z,44.31
2022-08-17T10:16:06.529Z,45.96
2022-08-17T10:17:06.502Z,44.46
2022-08-17T10:18:13.997Z,42.79
2022-08-17T10:19:06.469Z,43.28
2022-08-17T10:20:06.490Z,42.59
2022-08-17T10:21:06.449Z,42.49
2022-08-17T10:22:32.704Z,43.68
2022-08-17T10:23:07.419Z,42.67
2022-08-17T10:24:06.410Z,42.96
2022-08-17T10:25:22.778Z,42.99
2022-08-17T10:26:07.401Z,42.89
2022-08-17T10:27:06.371Z,42.69
2022-08-17T10:28:07.346Z,42.30
2022-08-17T10:29:07.342Z,42.69
2022-08-17T10:30:06.378Z,42.59
2022-08-17T10:32:07.325Z,43.28
2022-08-17T10:33:06.302Z,43.08
2022-08-17T10:34:06.285Z,43.57
2022-08-17T10:35:06.270Z,42.28
2022-08-17T10:36:10.569Z,42.96
2022-08-17T10:37:06.264Z,42.67
2022-08-17T10:38:06.224Z,40.88
2022-08-17T10:39:06.223Z,40.76
2022-08-17T10:40:06.220Z,40.64
2022-08-17T10:41:06.196Z,39.86
2022-08-17T10:42:06.187Z,41.02
2022-08-17T10:43:06.166Z,39.35
2022-08-17T10:44:37.560Z,39.53
2022-08-17T10:45:07.136Z,38.92
2022-08-17T10:46:10.650Z,39.11
2022-08-17T10:47:07.111Z,40.09
2022-08-17T10:48:07.169Z,39.49
2022-08-17T10:49:06.089Z,39.09
2022-08-17T10:50:06.097Z,40.17
2022-08-17T10:51:06.086Z,39.59
2022-08-17T10:52:06.058Z,39.29
2022-08-17T10:53:06.039Z,39.59
2022-08-17T10:54:06.029Z,38.51
2022-08-17T10:55:06.021Z,38.98
2022-08-17T10:56:06.019Z,38.59
2022-08-17T10:57:06.000Z,38.18
2022-08-17T10:58:06.002Z,39.45
2022-08-17T10:59:05.953Z,37.79
2022-08-17T11:00:06.017Z,37.59
2022-08-17T11:01:05.992Z,38.55
2022-08-17T11:02:05.943Z,36.69
2022-08-17T11:03:05.915Z,38.45
2022-08-17T11:04:05.902Z,37.59
2022-08-17T11:05:05.924Z,37.59
2022-08-17T11:06:05.894Z,37.10
2022-08-17T11:07:05.877Z,36.41
2022-08-17T11:08:05.865Z,37.29
2022-08-17T11:09:05.834Z,37.19
2022-08-17T11:10:05.831Z,37.49
2022-08-17T11:11:05.822Z,37.39
2022-08-17T11:12:05.806Z,37.19
2022-08-17T11:13:05.794Z,38.28
2022-08-17T11:14:05.786Z,38.45
2022-08-17T11:15:05.819Z,37.27
2022-08-17T11:16:08.435Z,36.88
2022-08-17T11:17:05.743Z,36.98
2022-08-17T11:18:05.761Z,35.53
2022-08-17T11:19:05.711Z,37.29
2022-08-17T11:20:05.708Z,37.00
2022-08-17T11:21:05.730Z,35.24
2022-08-17T11:22:05.715Z,37.29
2022-08-17T11:23:05.659Z,36.22
2022-08-17T11:24:05.658Z,36.02
2022-08-17T11:25:05.643Z,36.51
2022-08-17T11:26:05.639Z,38.28
2022-08-17T11:27:05.618Z,36.61
2022-08-17T11:28:05.611Z,36.33
2022-08-17T11:29:05.580Z,38.29
2022-08-17T11:30:05.590Z,35.85
2022-08-17T11:31:05.570Z,36.82
2022-08-17T11:32:05.562Z,36.06
2022-08-17T11:33:05.532Z,36.35
2022-08-17T11:34:05.529Z,36.37
2022-08-17T11:35:05.512Z,37.15
2022-08-17T11:36:05.517Z,36.37
2022-08-17T11:37:05.483Z,36.47
2022-08-17T11:38:05.482Z,36.27
2022-08-17T11:39:05.475Z,36.96
2022-08-17T11:40:05.558Z,36.88
2022-08-17T11:41:05.455Z,37.74
2022-08-17T11:42:05.425Z,39.01
2022-08-17T11:43:05.446Z,38.33
2022-08-17T11:44:05.405Z,36.27
2022-08-17T11:45:05.398Z,36.76
2022-08-17T11:46:05.386Z,37.92
2022-08-17T11:47:05.360Z,37.61
2022-08-17T11:49:06.342Z,36.57
2022-08-17T11:50:05.357Z,38.02
2022-08-17T11:51:05.309Z,36.26
2022-08-17T11:52:05.297Z,38.32
2022-08-17T11:53:05.310Z,34.33
2022-08-17T11:54:31.147Z,36.87
2022-08-17T11:55:31.768Z,35.61
2022-08-17T11:56:06.254Z,37.37
2022-08-17T11:57:05.264Z,36.79
2022-08-17T11:58:05.237Z,36.32
2022-08-17T11:59:05.219Z,35.81
2022-08-17T12:00:05.220Z,34.81
2022-08-17T12:01:06.195Z,37.06
2022-08-17T12:02:05.187Z,35.22
2022-08-17T12:03:05.193Z,34.83
2022-08-17T12:04:05.213Z,35.22
2022-08-17T12:05:05.189Z,35.68
2022-08-17T12:06:06.131Z,36.23
2022-08-17T12:07:05.123Z,34.26
2022-08-17T12:08:05.111Z,32.68
2022-08-17T12:09:05.088Z,32.08
2022-08-17T12:10:05.098Z,33.33
2022-08-17T12:11:05.075Z,33.80
2022-08-17T12:12:12.501Z,32.91
2022-08-17T12:13:06.045Z,30.98
2022-08-17T12:14:05.026Z,31.76
2022-08-17T12:15:12.429Z,32.35
2022-08-17T12:16:06.021Z,33.14
2022-08-17T12:17:05.000Z,32.08
2022-08-17T12:18:04.994Z,31.90
2022-08-17T12:19:04.970Z,35.02
2022-08-17T12:20:04.977Z,35.90
2022-08-17T12:21:04.978Z,34.12
2022-08-17T12:22:04.959Z,34.50
2022-08-17T12:23:04.909Z,35.47
2022-08-17T12:24:04.918Z,33.82
2022-08-17T12:25:04.893Z,33.22
2022-08-17T12:26:04.890Z,32.91
2022-08-17T12:27:04.890Z,32.81
2022-08-17T12:28:07.458Z,31.85
2022-08-17T12:29:05.216Z,32.91
2022-08-17T12:30:04.843Z,33.09
2022-08-17T12:31:04.833Z,31.50
2022-08-17T12:32:04.811Z,31.60
2022-08-17T12:33:04.801Z,31.13
2022-08-17T12:34:04.782Z,32.59
2022-08-17T12:35:04.805Z,29.89
2022-08-17T12:36:04.824Z,30.58
2022-08-17T12:37:04.753Z,32.35
2022-08-17T12:38:04.744Z,34.03
2022-08-17T12:39:12.889Z,33.15
2022-08-17T12:40:05.796Z,32.94
2022-08-17T12:41:04.706Z,30.99
2022-08-17T12:42:04.701Z,31.13
2022-08-17T12:43:04.664Z,33.89
2022-08-17T12:44:04.656Z,32.01
2022-08-17T12:45:04.647Z,31.77
2022-08-17T12:46:13.380Z,31.61
2022-08-17T12:47:05.624Z,31.07
2022-08-17T12:48:04.616Z,29.17
2022-08-17T12:49:04.589Z,28.66
2022-08-17T12:50:05.638Z,27.17
2022-08-17T12:51:04.586Z,27.71
2022-08-17T12:52:04.566Z,26.81
2022-08-17T12:53:04.548Z,25.44
2022-08-17T12:54:04.538Z,24.58
2022-08-17T12:55:04.529Z,25.05
2022-08-17T12:56:04.529Z,24.58
2022-08-17T12:57:04.507Z,25.93
2022-08-17T12:58:04.505Z,24.49
2022-08-17T12:59:04.479Z,24.91
2022-08-17T13:00:04.534Z,25.46
2022-08-17T13:01:04.476Z,26.21
2022-08-17T13:02:04.514Z,24.98
2022-08-17T13:03:04.432Z,26.67
2022-08-17T13:04:04.432Z,27.34
2022-08-17T13:05:04.423Z,28.87
2022-08-17T13:06:04.411Z,25.29
2022-08-17T13:07:04.383Z,26.93
2022-08-17T13:08:04.374Z,26.06
2022-08-17T13:09:04.362Z,26.39
2022-08-17T13:10:04.421Z,27.22
2022-08-17T13:11:04.325Z,29.50
2022-08-17T13:12:05.180Z,29.52
2022-08-17T13:13:04.307Z,30.14
2022-08-17T13:14:04.295Z,30.74
2022-08-17T13:15:04.285Z,30.26
2022-08-17T13:16:04.276Z,29.81
2022-08-17T13:17:07.143Z,30.13
2022-08-17T13:18:05.247Z,31.35
2022-08-17T13:19:04.239Z,31.26
2022-08-17T13:20:04.256Z,32.16
2022-08-17T13:21:04.221Z,32.09
2022-08-17T13:22:04.397Z,32.97
2022-08-17T13:23:07.492Z,33.64
2022-08-17T13:24:05.185Z,33.01
2022-08-17T13:25:04.152Z,32.58